Time;durP1;ratioP1;P1;durP2;ratioP2;P2;SDS_P1;SDS_P2;PMS_P1;PMS_P2;Temp;Humidity;BMP_temperature;BMP_pressure;BME280_temperature;BME280_humidity;BME280_pressure;Samples;Min_cycle;Max_cycle;Signal;HPM_P1;HPM_P2
2023/05/01 00:00:06;;;;;;;1.70;1.60;;;20.40;59.60;21.30;100900.00;;;;4975697;28;20644;-49
2023/05/01 00:02:31;;;;;;;1.77;1.40;;;20.40;59.60;21.10;100893.00;;;;4989723;28;20203;-49
2023/05/01 00:04:57;;;;;;;1.80;1.40;;;20.40;59.60;21.30;100894.00;;;;4989870;28;20204;-49
2023/05/01 00:07:29;;;;;;;1.60;1.50;;;20.40;59.60;20.90;100900.00;;;;4989682;28;20216;-49
2023/05/01 00:09:58;;;;;;;1.63;1.53;;;20.30;59.50;21.30;100887.00;;;;4989902;28;20176;-49
2023/05/01 00:12:24;;;;;;;1.40;1.30;;;20.30;59.50;21.20;100889.00;;;;4989666;28;20181;-49
2023/05/01 00:14:50;;;;;;;1.60;1.50;;;20.30;59.50;21.20;100878.00;;;;4989472;28;20242;-50
2023/05/01 00:17:16;;;;;;;1.87;1.77;;;20.30;59.50;21.20;100884.00;;;;4989043;28;20264;-50
2023/05/01 00:19:41;;;;;;;1.30;1.30;;;20.30;59.60;21.20;100881.00;;;;4989323;28;20168;-49
2023/05/01 00:22:07;;;;;;;1.70;1.50;;;20.30;59.50;21.20;100880.00;;;;4989331;28;20174;-50
2023/05/01 00:24:33;;;;;;;1.53;1.43;;;20.30;59.60;21.20;100879.00;;;;4989358;28;20275;-49
2023/05/01 00:26:59;;;;;;;1.80;1.70;;;20.30;59.50;21.20;100870.00;;;;4989070;28;20602;-49
2023/05/01 00:29:25;;;;;;;1.77;1.60;;;20.30;59.60;21.10;100876.00;;;;4989308;28;20204;-50
2023/05/01 00:31:51;;;;;;;1.70;1.60;;;20.20;59.60;21.10;100877.00;;;;4989083;28;20647;-50
2023/05/01 00:34:16;;;;;;;1.60;1.50;;;20.30;59.60;21.10;100876.00;;;;4989181;28;20219;-49
2023/05/01 00:36:42;;;;;;;1.50;1.40;;;20.30;59.70;21.10;100875.00;;;;4988815;28;20172;-49
2023/05/01 00:39:08;;;;;;;1.70;1.60;;;20.20;59.60;21.10;100879.00;;;;4989177;28;20704;-48
2023/05/01 00:41:34;;;;;;;2.00;1.50;;;20.20;59.60;21.10;100872.00;;;;4989020;28;20173;-48
2023/05/01 00:44:00;;;;;;;1.90;1.80;;;20.20;59.60;21.10;100867.00;;;;4988980;28;20172;-48
2023/05/01 00:46:27;;;;;;;1.70;1.60;;;20.20;59.70;21.10;100877.00;;;;4988381;28;20176;-48
2023/05/01 00:48:53;;;;;;;1.70;1.60;;;20.20;59.70;21.00;100874.00;;;;4971441;28;20245;-50
2023/05/01 00:51:19;;;;;;;1.50;1.40;;;20.10;59.60;21.00;100873.00;;;;4988956;28;20547;-47
2023/05/01 00:53:45;;;;;;;1.60;1.50;;;20.10;59.60;21.00;100859.00;;;;4971475;28;20287;-50
2023/05/01 00:56:10;;;;;;;1.80;1.70;;;20.10;59.70;21.00;100854.00;;;;4988681;28;20272;-49
2023/05/01 00:58:37;;;;;;;1.70;1.60;;;20.10;59.70;21.00;100862.00;;;;4973417;28;20188;-50
2023/05/01 01:01:04;;;;;;;1.73;1.63;;;20.10;59.70;21.00;100856.00;;;;4972317;28;20168;-50
2023/05/01 01:03:30;;;;;;;1.40;1.33;;;20.10;59.80;21.00;100848.00;;;;4989082;28;20184;-50
2023/05/01 01:06:24;;;;;;;1.70;1.60;;;20.10;59.80;20.90;100831.00;;;;4988986;28;20711;-48
2023/05/01 01:09:36;;;;;;;1.70;1.60;;;20.10;59.80;20.90;100843.00;;;;4955860;28;20204;-48
2023/05/01 01:12:26;;;;;;;1.60;1.50;;;20.10;59.90;20.90;100844.00;;;;4974035;28;20183;-48
2023/05/01 01:15:15;;;;;;;1.37;1.33;;;20.10;59.90;20.90;100851.00;;;;4975210;28;20578;-48
2023/05/01 01:17:52;;;;;;;1.30;1.30;;;20.10;59.90;20.90;100832.00;;;;4973553;28;20196;-49
2023/05/01 01:20:43;;;;;;;1.50;1.40;;;20.10;60.00;20.80;100836.00;;;;4971619;28;20244;-49
2023/05/01 01:23:57;;;;;;;1.70;1.57;;;20.00;59.90;20.80;100833.00;;;;4955800;28;20191;-48
2023/05/01 01:26:48;;;;;;;1.80;1.70;;;20.00;59.90;20.80;100844.00;;;;4934608;28;20581;-48
2023/05/01 01:30:01;;;;;;;1.63;1.53;;;20.00;60.00;20.80;100828.00;;;;4970957;28;20176;-49
2023/05/01 01:32:41;;;;;;;1.60;1.50;;;20.00;60.10;20.70;100828.00;;;;4975427;28;20178;-49
2023/05/01 01:35:11;;;;;;;1.40;1.40;;;20.00;60.00;20.70;100822.00;;;;4971193;28;20200;-48
2023/05/01 01:38:18;;;;;;;1.53;1.43;;;20.00;60.40;20.70;100821.00;;;;4988072;28;20219;-48
2023/05/01 01:41:09;;;;;;;1.60;1.50;;;20.00;60.00;20.70;100827.00;;;;4966466;28;20185;-50
2023/05/01 01:43:39;;;;;;;1.70;1.60;;;19.90;59.90;20.70;100816.00;;;;4971264;28;20255;-48
2023/05/01 01:46:07;;;;;;;1.40;1.33;;;19.90;60.00;20.70;100746.00;;;;4955185;28;20173;-49
2023/05/01 01:48:36;;;;;;;1.60;1.50;;;19.90;60.00;20.60;100797.00;;;;4970845;28;20339;-49
2023/05/01 01:51:09;;;;;;;1.40;1.40;;;19.90;60.10;20.60;100803.00;;;;4971445;28;20643;-49
2023/05/01 01:53:36;;;;;;;1.50;1.50;;;19.90;60.10;20.60;100784.00;;;;4955597;28;20207;-49
2023/05/01 01:56:05;;;;;;;1.47;1.43;;;19.90;60.10;20.60;100797.00;;;;4971288;28;20176;-49
2023/05/01 01:58:31;;;;;;;1.53;1.43;;;19.90;60.20;20.60;100797.00;;;;4955072;28;20667;-49
2023/05/01 02:00:56;;;;;;;1.50;1.40;;;19.90;60.10;20.60;100795.00;;;;4970641;28;20176;-49
2023/05/01 02:03:22;;;;;;;1.50;1.40;;;19.80;60.10;20.60;100792.00;;;;4954771;28;20177;-49
2023/05/01 02:05:48;;;;;;;1.70;1.60;;;19.80;60.10;20.60;100783.00;;;;4970992;28;20176;-49
2023/05/01 02:08:14;;;;;;;1.50;1.40;;;19.80;60.10;20.60;100797.00;;;;4988098;28;20489;-49
2023/05/01 02:10:40;;;;;;;1.60;1.50;;;19.80;60.20;20.60;100794.00;;;;4970811;28;20172;-49
2023/05/01 02:13:06;;;;;;;1.70;1.57;;;19.80;60.20;20.60;100784.00;;;;4970707;28;20194;-49
2023/05/01 02:15:31;;;;;;;1.30;1.30;;;19.80;60.20;20.60;100785.00;;;;4988054;28;20173;-50
2023/05/01 02:17:57;;;;;;;1.43;1.40;;;19.80;60.20;20.60;100781.00;;;;4955283;28;20326;-49
2023/05/01 02:20:23;;;;;;;1.73;1.50;;;19.80;60.30;20.60;100780.00;;;;4974224;28;20256;-49
2023/05/01 02:22:50;;;;;;;1.53;1.43;;;19.80;60.30;20.50;100766.00;;;;4974286;28;20231;-49
2023/05/01 02:25:16;;;;;;;1.70;1.60;;;19.80;60.30;20.50;100775.00;;;;4974453;28;20172;-49
2023/05/01 02:28:02;;;;;;;1.60;1.50;;;19.70;60.30;20.50;100762.00;;;;4991316;28;20200;-49
2023/05/01 02:30:28;;;;;;;1.70;1.60;;;19.80;60.40;20.50;100770.00;;;;4974164;28;20177;-49
2023/05/01 02:32:54;;;;;;;1.43;1.40;;;19.70;60.40;20.50;100768.00;;;;4973970;28;20306;-50
2023/05/01 02:35:20;;;;;;;1.70;1.60;;;19.70;60.40;20.50;100763.00;;;;4957710;28;20208;-49
2023/05/01 02:37:46;;;;;;;1.37;1.37;;;19.70;60.40;20.50;100762.00;;;;4991118;28;20192;-49
2023/05/01 02:40:13;;;;;;;1.70;1.60;;;19.70;60.40;20.50;100766.00;;;;4991542;28;20245;-49
2023/05/01 02:42:42;;;;;;;1.70;1.60;;;19.70;60.40;20.50;100748.00;;;;4958355;28;20168;-49
2023/05/01 02:45:10;;;;;;;1.70;1.60;;;19.70;61.20;20.50;100745.00;;;;4958334;28;20192;-49
2023/05/01 02:47:39;;;;;;;1.60;1.50;;;19.70;60.40;20.40;100724.00;;;;4973409;28;20214;-49
2023/05/01 02:50:05;;;;;;;1.60;1.50;;;19.70;60.40;20.40;100747.00;;;;4957635;28;20192;-48
2023/05/01 02:52:31;;;;;;;1.70;1.60;;;19.60;60.40;20.40;100742.00;;;;4973900;28;20235;-49
2023/05/01 02:54:57;;;;;;;1.40;1.40;;;19.60;60.50;20.40;100747.00;;;;4991358;28;20192;-49
2023/05/01 02:57:22;;;;;;;1.70;1.60;;;19.60;60.50;20.40;100733.00;;;;4974385;28;20207;-49
2023/05/01 02:59:48;;;;;;;1.70;1.60;;;19.60;60.50;20.40;100736.00;;;;4977872;28;20247;-49
2023/05/01 03:02:14;;;;;;;1.53;1.50;;;19.70;60.50;20.40;100731.00;;;;4992108;28;20165;-49
2023/05/01 03:04:43;;;;;;;1.33;1.33;;;19.60;60.50;20.40;100733.00;;;;4991396;28;20220;-49
2023/05/01 03:07:09;;;;;;;1.70;1.60;;;19.60;60.50;20.40;100730.00;;;;4991094;28;20188;-49
2023/05/01 03:09:35;;;;;;;1.60;1.50;;;19.60;60.50;20.40;100726.00;;;;4991476;28;20219;-49
2023/05/01 03:12:01;;;;;;;1.53;1.43;;;19.60;60.50;20.30;100718.00;;;;4991638;28;20176;-49
2023/05/01 03:14:27;;;;;;;1.60;1.50;;;19.60;60.50;20.30;100718.00;;;;4993387;28;20195;-49
2023/05/01 03:16:54;;;;;;;1.63;1.60;;;19.60;60.50;20.30;100714.00;;;;4990931;28;20215;-49
2023/05/01 03:19:19;;;;;;;1.60;1.50;;;19.60;60.60;20.30;100705.00;;;;4973261;28;20181;-50
2023/05/01 03:21:45;;;;;;;1.60;1.50;;;19.50;60.60;20.30;100709.00;;;;4990828;28;20184;-49
2023/05/01 03:24:11;;;;;;;1.60;1.50;;;19.60;60.70;20.30;100701.00;;;;4990860;28;20172;-49
2023/05/01 03:26:37;;;;;;;1.60;1.50;;;19.60;60.70;20.30;100708.00;;;;4990530;28;20553;-49
2023/05/01 03:29:02;;;;;;;1.23;1.23;;;19.50;60.70;20.00;100703.00;;;;4989949;28;20219;-49
2023/05/01 03:31:28;;;;;;;1.67;1.57;;;19.50;60.70;20.30;100700.00;;;;4990527;28;20260;-50
2023/05/01 03:33:54;;;;;;;1.77;1.40;;;19.60;61.00;20.30;100695.00;;;;4990562;28;20243;-49
2023/05/01 03:36:23;;;;;;;1.93;1.60;;;19.60;60.80;20.30;100698.00;;;;4990264;28;20168;-49
2023/05/01 03:38:49;;;;;;;1.67;1.57;;;19.60;60.80;20.30;100698.00;;;;4977635;28;20208;-49
2023/05/01 03:41:15;;;;;;;1.57;1.50;;;19.50;60.70;20.30;100697.00;;;;4969935;28;20200;-49
2023/05/01 03:43:41;;;;;;;2.03;1.60;;;19.50;60.70;20.30;100691.00;;;;4970394;28;20169;-49
2023/05/01 03:46:06;;;;;;;2.30;1.50;;;19.50;60.50;20.30;100696.00;;;;4969376;28;20177;-48
2023/05/01 03:48:32;;;;;;;1.90;1.70;;;19.50;60.50;20.20;100694.00;;;;4970856;28;20400;-49
2023/05/01 03:50:58;;;;;;;1.80;1.70;;;19.50;60.50;20.20;100695.00;;;;4971291;28;20173;-49
2023/05/01 03:53:24;;;;;;;2.17;1.80;;;19.50;60.20;20.20;100691.00;;;;4971149;28;20193;-49
2023/05/01 03:55:49;;;;;;;1.80;1.70;;;19.50;60.20;20.20;100688.00;;;;4971457;28;20656;-49
2023/05/01 03:58:15;;;;;;;2.37;1.97;;;19.40;60.10;20.20;100694.00;;;;4970416;28;20193;-49
2023/05/01 04:00:41;;;;;;;2.40;1.87;;;19.40;60.00;20.20;100686.00;;;;4971110;28;20181;-49
2023/05/01 04:03:07;;;;;;;2.13;1.93;;;19.40;60.00;20.20;100685.00;;;;4971827;28;20660;-49
2023/05/01 04:05:33;;;;;;;3.23;1.80;;;19.40;59.90;20.20;100679.00;;;;4971890;28;20184;-49
2023/05/01 04:07:58;;;;;;;2.87;1.90;;;19.40;59.80;20.20;100679.00;;;;4953718;28;20193;-49
2023/05/01 04:10:24;;;;;;;2.20;2.00;;;19.40;59.80;20.10;100682.00;;;;4970841;28;20176;-49
2023/05/01 04:12:50;;;;;;;2.10;1.90;;;19.30;59.70;20.10;100675.00;;;;4971209;28;20166;-49
2023/05/01 04:15:16;;;;;;;3.77;1.90;;;19.40;59.70;20.10;100675.00;;;;4970707;28;20683;-49
2023/05/01 04:17:42;;;;;;;2.17;1.90;;;19.30;59.70;20.10;100673.00;;;;4970331;28;20196;-49
2023/05/01 04:20:09;;;;;;;2.20;2.00;;;19.30;59.60;20.10;100683.00;;;;4970997;28;20181;-49
2023/05/01 04:22:35;;;;;;;2.70;1.80;;;19.30;59.60;20.10;100637.00;;;;4970713;28;20177;-49
2023/05/01 04:25:01;;;;;;;2.73;1.87;;;19.30;59.50;20.10;100679.00;;;;4971046;28;20240;-49
2023/05/01 04:27:26;;;;;;;3.70;1.90;;;19.30;59.50;20.10;100678.00;;;;4969135;28;20193;-49
2023/05/01 04:29:52;;;;;;;3.30;2.10;;;19.30;59.50;20.10;100680.00;;;;4970765;28;20260;-49
2023/05/01 04:32:18;;;;;;;3.30;2.03;;;19.30;59.40;20.10;100675.00;;;;4970562;28;20173;-49
2023/05/01 04:34:44;;;;;;;2.20;2.00;;;19.30;59.50;20.00;100690.00;;;;4971028;28;20255;-49
2023/05/01 04:37:10;;;;;;;2.13;1.97;;;19.20;59.40;20.00;100678.00;;;;4970051;28;20209;-49
2023/05/01 04:39:35;;;;;;;2.47;2.10;;;19.20;59.40;20.00;100674.00;;;;4971066;28;20173;-49
2023/05/01 04:42:02;;;;;;;4.33;2.30;;;19.20;59.30;20.00;100672.00;;;;4970401;28;20585;-49
2023/05/01 04:44:28;;;;;;;2.80;2.10;;;19.20;59.30;20.00;100669.00;;;;4970861;28;20180;-49
2023/05/01 04:46:54;;;;;;;4.33;2.07;;;19.20;59.30;20.00;100673.00;;;;4969528;28;20232;-49
2023/05/01 04:49:21;;;;;;;3.40;2.30;;;19.20;59.30;20.00;100670.00;;;;4970581;28;20783;-49
2023/05/01 04:51:47;;;;;;;2.23;2.03;;;19.20;59.40;19.90;100675.00;;;;4970360;28;20236;-50
2023/05/01 04:54:12;;;;;;;2.60;2.23;;;19.20;59.30;19.90;100672.00;;;;4970340;28;20224;-49
2023/05/01 04:56:38;;;;;;;3.83;2.20;;;19.10;59.30;19.90;100669.00;;;;4970155;28;20334;-49
2023/05/01 04:59:04;;;;;;;2.53;2.17;;;19.20;59.30;19.90;100683.00;;;;4973040;28;20268;-49
2023/05/01 05:01:30;;;;;;;3.33;2.27;;;19.20;59.40;19.90;100671.00;;;;4972331;28;20165;-49
2023/05/01 05:03:55;;;;;;;3.13;2.10;;;19.20;59.40;19.90;100677.00;;;;4969759;28;20771;-48
2023/05/01 05:06:21;;;;;;;4.23;2.20;;;19.10;59.40;19.90;100671.00;;;;4970287;28;20177;-49
2023/05/01 05:08:50;;;;;;;2.43;2.23;;;19.10;59.40;19.90;100682.00;;;;4968946;28;20678;-49
2023/05/01 05:11:17;;;;;;;3.40;2.20;;;19.10;59.50;19.80;100672.00;;;;4970250;28;20175;-48
2023/05/01 05:13:44;;;;;;;2.47;2.27;;;19.10;59.40;19.80;100677.00;;;;4971599;28;20272;-50
2023/05/01 05:16:10;;;;;;;2.43;2.20;;;19.10;59.40;19.80;100676.00;;;;4971114;28;20173;-50
2023/05/01 05:18:35;;;;;;;3.23;2.00;;;19.10;59.40;19.80;100671.00;;;;4970115;28;20192;-50
2023/05/01 05:21:04;;;;;;;2.30;2.10;;;19.00;59.30;19.80;100672.00;;;;4969807;28;20521;-50
2023/05/01 05:23:30;;;;;;;5.60;2.50;;;19.00;59.30;19.80;100679.00;;;;4969636;28;20199;-49
2023/05/01 05:25:58;;;;;;;4.43;2.33;;;19.10;59.40;19.80;100671.00;;;;4970250;28;20687;-48
2023/05/01 05:28:25;;;;;;;6.07;2.70;;;19.00;59.40;19.80;100662.00;;;;4967308;28;20267;-49
2023/05/01 05:30:51;;;;;;;4.00;2.60;;;19.00;59.40;19.80;100668.00;;;;4969762;28;20548;-50
2023/05/01 05:33:16;;;;;;;3.77;2.27;;;19.00;59.40;19.80;100678.00;;;;4969724;28;20816;-50
2023/05/01 05:35:42;;;;;;;3.70;2.43;;;19.00;59.40;19.80;100682.00;;;;4969917;28;20207;-49
2023/05/01 05:38:08;;;;;;;4.10;2.77;;;19.00;59.40;19.60;100674.00;;;;4969110;28;20688;-50
2023/05/01 05:40:34;;;;;;;4.33;2.37;;;19.00;59.40;19.80;100677.00;;;;4969502;28;20180;-50
2023/05/01 05:42:59;;;;;;;3.80;2.50;;;19.00;59.40;19.80;100668.00;;;;4968973;28;20847;-49
2023/05/01 05:45:25;;;;;;;4.33;2.40;;;19.00;59.40;19.80;100677.00;;;;4970085;28;20268;-49
2023/05/01 05:47:51;;;;;;;3.47;2.50;;;19.00;59.40;19.80;100676.00;;;;4969645;28;20205;-50
2023/05/01 05:50:16;;;;;;;3.27;2.13;;;19.00;59.40;19.70;100670.00;;;;4969188;28;20258;-49
2023/05/01 05:52:42;;;;;;;5.23;2.40;;;18.90;59.40;19.70;100670.00;;;;4970213;28;20172;-49
2023/05/01 05:55:08;;;;;;;5.53;2.37;;;18.90;59.40;19.70;100665.00;;;;4972484;28;20621;-50
2023/05/01 05:57:36;;;;;;;3.10;2.27;;;19.00;59.40;19.70;100670.00;;;;4972648;28;20192;-50
2023/05/01 06:00:04;;;;;;;3.63;2.17;;;18.90;59.30;19.70;100661.00;;;;4973698;28;20235;-50
2023/05/01 06:02:31;;;;;;;4.73;2.37;;;18.90;59.40;19.70;100671.00;;;;4973466;28;20184;-50
2023/05/01 06:04:57;;;;;;;4.57;2.40;;;18.90;59.40;19.60;100670.00;;;;4972321;28;20177;-50
2023/05/01 06:07:24;;;;;;;2.90;2.27;;;18.90;59.30;19.60;100663.00;;;;4972543;28;20280;-50
2023/05/01 06:09:50;;;;;;;3.53;2.07;;;18.90;59.30;19.60;100666.00;;;;4972858;28;20215;-50
2023/05/01 06:12:15;;;;;;;3.30;2.30;;;18.90;59.30;19.60;100663.00;;;;4973283;28;20184;-50
2023/05/01 06:14:41;;;;;;;2.70;2.47;;;18.80;59.20;19.60;100656.00;;;;4973445;28;20295;-50
2023/05/01 06:17:07;;;;;;;3.97;2.30;;;18.90;59.30;19.60;100675.00;;;;4969126;28;20346;-50
2023/05/01 06:19:34;;;;;;;3.40;2.20;;;18.90;59.30;19.60;100667.00;;;;4973294;28;20176;-49
2023/05/01 06:22:00;;;;;;;2.50;2.30;;;18.90;59.30;19.60;100667.00;;;;4955331;28;20177;-50
2023/05/01 06:24:26;;;;;;;2.30;2.10;;;18.90;59.20;19.60;100680.00;;;;4972075;28;20170;-50
2023/05/01 06:26:52;;;;;;;2.57;2.37;;;18.90;59.30;19.60;100667.00;;;;4972353;28;20184;-49
2023/05/01 06:29:18;;;;;;;4.40;2.53;;;18.80;59.20;19.50;100655.00;;;;4972004;28;20618;-49
2023/05/01 06:31:44;;;;;;;2.40;2.20;;;18.90;59.30;19.50;100654.00;;;;4972320;28;20177;-49
2023/05/01 06:34:10;;;;;;;2.30;2.10;;;18.80;59.20;19.50;100662.00;;;;4971449;28;20208;-49
2023/05/01 06:36:36;;;;;;;3.00;2.30;;;18.80;59.30;19.50;100659.00;;;;4971278;28;20177;-49
2023/05/01 06:39:01;;;;;;;2.50;2.30;;;18.80;59.20;19.50;100663.00;;;;4972790;28;20271;-49
2023/05/01 06:41:27;;;;;;;2.27;2.00;;;18.80;59.20;19.50;100669.00;;;;4971386;28;20212;-48
2023/05/01 06:43:53;;;;;;;2.30;2.03;;;18.80;59.30;19.50;100655.00;;;;4971596;28;20219;-49
2023/05/01 06:46:18;;;;;;;2.27;2.07;;;18.80;59.30;19.50;100657.00;;;;4972031;28;20191;-48
2023/05/01 06:48:44;;;;;;;2.57;2.07;;;18.80;59.30;19.50;100665.00;;;;4972483;28;20204;-48
2023/05/01 06:51:13;;;;;;;2.70;2.27;;;18.70;59.20;19.50;100657.00;;;;4971384;28;20173;-48
2023/05/01 06:53:40;;;;;;;2.50;2.30;;;18.70;59.20;19.50;100662.00;;;;4972201;28;20193;-48
2023/05/01 06:56:07;;;;;;;2.50;2.17;;;18.80;59.30;19.50;100653.00;;;;4971910;28;20165;-48
2023/05/01 06:58:32;;;;;;;2.70;2.10;;;18.70;59.20;19.50;100648.00;;;;4972237;28;20557;-50
2023/05/01 07:00:58;;;;;;;2.27;2.07;;;18.80;59.30;19.50;100655.00;;;;4972028;28;20195;-50
2023/05/01 07:03:26;;;;;;;2.50;2.30;;;18.70;59.20;19.50;100667.00;;;;4953752;28;20169;-48
2023/05/01 07:05:53;;;;;;;3.37;2.10;;;18.70;59.40;19.50;100658.00;;;;4971921;28;20540;-48
2023/05/01 07:08:19;;;;;;;2.53;2.13;;;18.80;59.40;19.50;100656.00;;;;4972467;28;20610;-48
2023/05/01 07:10:45;;;;;;;3.87;2.30;;;18.70;60.10;19.60;100661.00;;;;4972997;28;20180;-48
2023/05/01 07:13:10;;;;;;;6.77;2.30;;;18.70;59.40;19.60;100651.00;;;;4973597;28;20195;-48
2023/05/01 07:15:36;;;;;;;3.43;2.33;;;18.80;59.50;19.60;100654.00;;;;4973825;28;20204;-49
2023/05/01 07:18:04;;;;;;;2.87;2.20;;;18.70;59.50;19.50;100650.00;;;;4970881;28;20196;-48
2023/05/01 07:20:31;;;;;;;2.40;2.20;;;18.80;59.70;19.60;100651.00;;;;4987707;28;20234;-48
2023/05/01 07:22:57;;;;;;;2.83;2.10;;;18.80;59.80;19.50;100653.00;;;;4983421;28;20183;-49
2023/05/01 07:25:23;;;;;;;3.27;2.20;;;18.70;59.70;19.50;100653.00;;;;4972097;28;20190;-49
2023/05/01 07:27:49;;;;;;;2.50;2.27;;;18.70;59.80;19.50;100650.00;;;;4972384;28;20224;-48
2023/05/01 07:30:15;;;;;;;3.87;2.13;;;18.70;59.80;19.50;100589.00;;;;4972224;28;20263;-49
2023/05/01 07:32:41;;;;;;;3.17;2.30;;;18.70;59.80;19.50;100647.00;;;;4972085;28;20169;-49
2023/05/01 07:35:07;;;;;;;2.20;2.00;;;18.70;59.90;19.50;100653.00;;;;4971557;28;20204;-48
2023/05/01 07:37:33;;;;;;;3.87;2.33;;;18.70;59.80;19.50;100642.00;;;;4971739;28;20365;-48
2023/05/01 07:39:58;;;;;;;2.50;2.23;;;18.70;59.80;19.50;100645.00;;;;4970832;28;20259;-48
2023/05/01 07:42:28;;;;;;;2.67;2.27;;;18.70;59.80;19.50;100645.00;;;;4968216;28;20228;-48
2023/05/01 07:44:54;;;;;;;2.53;2.33;;;18.70;59.90;19.50;100645.00;;;;4972618;28;20215;-49
2023/05/01 07:47:20;;;;;;;2.30;2.10;;;18.70;59.90;19.50;100636.00;;;;4969875;28;20687;-48
2023/05/01 07:49:45;;;;;;;2.33;2.10;;;18.70;59.90;19.50;100637.00;;;;4971849;28;20222;-49
2023/05/01 07:52:11;;;;;;;3.17;2.10;;;18.70;59.90;19.50;100644.00;;;;4971585;28;20177;-49
2023/05/01 07:54:37;;;;;;;2.77;2.20;;;18.70;59.90;19.50;100638.00;;;;4971419;28;20201;-47
2023/05/01 07:57:05;;;;;;;3.10;2.40;;;18.70;59.90;19.50;100631.00;;;;4986946;28;20662;-50
2023/05/01 07:59:31;;;;;;;2.40;2.20;;;18.70;59.90;19.60;100632.00;;;;4990785;28;20168;-49
2023/05/01 08:01:56;;;;;;;2.40;2.00;;;18.70;59.90;19.60;100633.00;;;;4991291;28;20247;-50
2023/05/01 08:04:22;;;;;;;2.93;2.20;;;18.70;59.90;19.60;100639.00;;;;4973762;28;20176;-49
2023/05/01 08:06:51;;;;;;;2.47;2.20;;;18.70;59.90;19.60;100642.00;;;;4990545;28;20175;-49
2023/05/01 08:09:16;;;;;;;2.60;2.40;;;18.70;59.90;19.60;100631.00;;;;4983094;28;20181;-49
2023/05/01 08:11:42;;;;;;;3.00;2.30;;;18.70;59.90;19.60;100636.00;;;;4969799;28;20216;-49
2023/05/01 08:14:08;;;;;;;2.20;2.00;;;18.70;59.90;19.60;100637.00;;;;4970826;28;20193;-50
2023/05/01 08:16:34;;;;;;;2.00;1.90;;;18.70;59.90;19.60;100637.00;;;;4969171;28;20173;-49
2023/05/01 08:19:00;;;;;;;2.20;2.00;;;18.70;59.90;19.60;100642.00;;;;4950543;28;20222;-49
2023/05/01 08:21:26;;;;;;;2.50;2.20;;;18.70;59.90;19.60;100646.00;;;;4971032;28;20251;-50
2023/05/01 08:23:54;;;;;;;2.13;1.97;;;18.70;59.90;19.60;100637.00;;;;4971308;28;20180;-50
2023/05/01 08:26:20;;;;;;;2.13;2.00;;;18.70;59.90;19.60;100646.00;;;;4969644;28;20188;-49
2023/05/01 08:28:46;;;;;;;2.33;2.13;;;18.70;59.90;19.60;100642.00;;;;4954175;28;20243;-49
2023/05/01 08:31:12;;;;;;;2.30;2.10;;;18.70;59.90;19.60;100644.00;;;;4971449;28;20592;-50
2023/05/01 08:33:40;;;;;;;2.90;2.30;;;18.70;59.90;19.60;100641.00;;;;4971231;28;20191;-49
2023/05/01 08:36:08;;;;;;;8.43;2.30;;;18.70;59.90;19.60;100640.00;;;;4971131;28;20180;-49
2023/05/01 08:38:37;;;;;;;4.27;2.43;;;18.70;60.20;19.60;100636.00;;;;4962025;28;20672;-49
2023/05/01 08:41:03;;;;;;;7.67;2.43;;;18.70;60.30;19.70;100641.00;;;;4967502;28;20216;-45
2023/05/01 08:43:32;;;;;;;6.13;2.57;;;18.70;60.80;19.70;100640.00;;;;4971281;28;20181;-45
2023/05/01 08:45:59;;;;;;;5.80;2.40;;;18.70;60.70;19.70;100639.00;;;;4989258;28;20187;-46
2023/05/01 08:48:26;;;;;;;3.60;2.50;;;18.70;60.70;19.70;100624.00;;;;4972350;28;20195;-46
2023/05/01 08:50:51;;;;;;;5.83;2.47;;;18.70;60.50;19.70;100635.00;;;;4956946;28;20175;-46
2023/05/01 08:53:17;;;;;;;5.30;2.40;;;18.80;60.90;19.70;100628.00;;;;4956031;28;20229;-46
2023/05/01 08:55:46;;;;;;;8.83;2.40;;;18.80;60.90;19.70;100632.00;;;;4971093;28;20241;-48
2023/05/01 08:58:12;;;;;;;8.33;2.67;;;18.70;61.00;19.70;100632.00;;;;4969932;28;20213;-47
2023/05/01 09:00:38;;;;;;;9.27;2.57;;;18.70;61.50;19.70;100634.00;;;;4971324;28;20167;-46
2023/05/01 09:03:03;;;;;;;8.97;2.57;;;18.80;61.60;19.70;100623.00;;;;4954751;28;20172;-48
2023/05/01 09:05:31;;;;;;;8.67;2.73;;;18.80;62.00;19.80;100630.00;;;;4937337;28;20547;-48
2023/05/01 09:07:57;;;;;;;8.43;2.87;;;18.80;61.60;19.80;100629.00;;;;4969979;28;20204;-46
2023/05/01 09:10:23;;;;;;;7.53;2.80;;;18.80;61.50;19.80;100633.00;;;;4970834;28;20182;-46
2023/05/01 09:12:55;;;;;;;5.30;2.40;;;18.80;61.50;19.80;100633.00;;;;4970080;28;20188;-46
2023/05/01 09:15:20;;;;;;;6.60;2.50;;;18.80;61.30;19.90;100630.00;;;;4956836;28;20200;-46
2023/05/01 09:17:46;;;;;;;9.30;2.67;;;18.80;61.60;19.90;100632.00;;;;4970717;28;20541;-46
2023/05/01 09:20:12;;;;;;;8.20;2.83;;;18.90;61.80;19.90;100637.00;;;;4953152;28;20176;-45
2023/05/01 09:22:38;;;;;;;15.00;2.70;;;18.90;62.80;19.90;100634.00;;;;4969820;28;20184;-46
2023/05/01 09:25:05;;;;;;;5.03;2.20;;;18.90;62.00;20.00;100634.00;;;;4953043;28;20556;-46
2023/05/01 09:27:34;;;;;;;9.63;2.57;;;18.90;62.80;20.00;100628.00;;;;4970085;28;20243;-46
2023/05/01 09:30:00;;;;;;;12.17;2.80;;;18.90;62.10;20.00;100627.00;;;;4974346;28;20176;-48
2023/05/01 09:32:28;;;;;;;14.10;2.67;;;18.90;62.80;20.00;100633.00;;;;4976182;28;20317;-47
2023/05/01 09:35:16;;;;;;;6.33;2.37;;;18.90;62.80;20.00;100631.00;;;;4991944;28;20207;-47
2023/05/01 09:37:42;;;;;;;7.27;2.40;;;18.90;62.80;20.00;100624.00;;;;4959329;28;20216;-47
2023/05/01 09:40:14;;;;;;;12.43;2.67;;;19.00;62.60;20.00;100635.00;;;;4939927;28;20200;-47
2023/05/01 09:42:51;;;;;;;6.23;2.20;;;19.00;62.30;20.00;100628.00;;;;4973919;28;20658;-47
2023/05/01 09:45:18;;;;;;;5.23;2.30;;;18.90;62.00;20.00;100645.00;;;;4974872;28;20204;-47
2023/05/01 09:47:46;;;;;;;4.13;2.43;;;18.90;61.90;20.00;100641.00;;;;4974128;28;20224;-47
2023/05/01 09:50:31;;;;;;;6.77;2.50;;;18.90;61.90;20.10;100635.00;;;;4957110;28;20184;-47
2023/05/01 09:52:59;;;;;;;4.17;2.43;;;18.90;61.80;20.10;100625.00;;;;4974354;28;20183;-47
2023/05/01 09:55:25;;;;;;;4.60;2.63;;;18.90;61.70;20.10;100618.00;;;;4974379;28;20647;-47
2023/05/01 09:57:51;;;;;;;4.87;2.50;;;19.00;61.70;20.10;100612.00;;;;4974086;28;20224;-47
2023/05/01 10:00:19;;;;;;;5.17;2.63;;;19.00;61.60;20.10;100622.00;;;;4956992;28;20587;-47
2023/05/01 10:02:46;;;;;;;4.03;2.30;;;19.00;61.60;20.10;100620.00;;;;4974047;28;20177;-46
2023/05/01 10:05:12;;;;;;;2.67;2.17;;;19.00;61.60;20.10;100615.00;;;;4957233;28;20269;-47
2023/05/01 10:07:38;;;;;;;4.67;2.30;;;19.00;61.60;20.10;100612.00;;;;4973692;28;20193;-46
2023/05/01 10:10:20;;;;;;;4.07;2.30;;;19.00;61.60;20.10;100610.00;;;;4956873;28;20173;-47
2023/05/01 10:12:46;;;;;;;4.63;2.43;;;19.00;61.50;20.20;100619.00;;;;4974147;28;20177;-45
2023/05/01 10:15:12;;;;;;;3.37;2.50;;;19.00;61.50;20.20;100615.00;;;;4973986;28;20300;-46
2023/05/01 10:17:39;;;;;;;3.37;2.10;;;19.00;61.40;20.20;100621.00;;;;4973635;28;20275;-46
2023/05/01 10:20:07;;;;;;;4.30;2.20;;;19.00;61.40;20.20;100609.00;;;;4973973;28;20193;-46
2023/05/01 10:22:32;;;;;;;2.77;2.10;;;19.00;61.40;20.20;100621.00;;;;4973590;28;20203;-47
2023/05/01 10:24:59;;;;;;;3.70;2.40;;;19.00;61.30;20.20;100592.00;;;;4973990;28;20196;-47
2023/05/01 10:27:25;;;;;;;3.43;2.27;;;19.10;61.50;20.20;100608.00;;;;4956367;28;20220;-46
2023/05/01 10:29:52;;;;;;;2.80;2.50;;;19.00;61.30;20.20;100604.00;;;;4973683;28;20742;-45
2023/05/01 10:32:17;;;;;;;2.50;1.97;;;19.00;61.30;20.20;100605.00;;;;4973761;28;20228;-47
2023/05/01 10:34:51;;;;;;;2.90;2.13;;;19.10;61.50;20.30;100602.00;;;;4956108;28;20204;-47
2023/05/01 10:37:56;;;;;;;4.07;2.17;;;19.10;61.50;20.30;100600.00;;;;4956588;28;20267;-47
2023/05/01 10:40:43;;;;;;;4.07;2.10;;;19.10;61.50;20.30;100599.00;;;;4956901;28;20666;-47
2023/05/01 10:43:17;;;;;;;3.20;2.17;;;19.10;61.60;20.30;100582.00;;;;4973782;28;20390;-47
2023/05/01 10:45:44;;;;;;;5.00;2.20;;;19.10;61.50;20.30;100599.00;;;;4973841;28;20173;-45
2023/05/01 10:48:10;;;;;;;2.43;2.00;;;19.10;61.60;20.30;100593.00;;;;4973216;28;20686;-46
2023/05/01 10:51:16;;;;;;;2.97;2.10;;;19.20;61.70;20.30;100582.00;;;;4973876;28;20189;-47